Terminal Aerodrome Forecast
Issued by NWS Central Illinois

Home | Current Version | Previous Version | Text Only | Print | Product List | Glossary On
Versions: 1 2 3 4 5 6 7 8 9 10 11 12 13 14 15 16 17 18 19 20 21 22 23 24 25
054
FTUS43 KILX 280520
TAFPIA
TAF
KPIA 280520Z 2806/2906 VRB04KT P6SM BKN050
     FM281400 13007KT P6SM VCSH OVC060
     FM281800 13011KT P6SM VCSH OVC035
     FM282100 13009KT P6SM VCSH OVC015
     FM290300 04005KT P6SM BKN010=

USA.gov is the U.S. government's official web portal to all federal, state and local government web resources and services.